LRCL/CLJ METAR and TAF weather

Enter ICAO airport designator
Station Type Date Time Source
LRCL METAR 2020/01/23 15:00 UTC NOAA

LRCL 231500Z 31009KT 9999 FEW044 02/M06 Q1033 R07/15//95


Station Type Date Time Source
LRCL Decoded METAR 2020/01/23 15:00 UTC NOAA

Cluj-Napoca, Romania (LRCL) 46-47N 023-34E 413M
Jan 23, 2020 - 10:00 AM EST / 2020.01.23 1500 UTC
Wind: from the NW (310 degrees) at 10 MPH (9 KT):0
Visibility: greater than 7 mile(s):0
Sky conditions: mostly clear
Temperature: 35 F (2 C)
Windchill: 26 F (-3 C):1
Dew Point: 21 F (-6 C)
Relative Humidity: 55%
Pressure (altimeter): 30.50 in. Hg (1033 hPa)
ob: LRCL 231500Z 31009KT 9999 FEW044 02/M06 Q1033 R07/15//95
cycle: 15

Station Type Date Time Source
LRCL TAF 2007/05/23 16:57 UTC NOAA

TAF
AMD LRCL 231657Z 231607 VRB02MPS 9999 SCT030 BKN080
TEMPO 1719 VRB15G20MPS 1500 TSRAGR SCT010 BKN020CB OVC080

Example: see airport list